createdAt,value
2023-09-27T00:00:15.493Z,3.00
2023-09-27T00:02:46.565Z,3.30
2023-09-27T00:05:14.535Z,4.03
2023-09-27T00:07:42.738Z,3.33
2023-09-27T00:10:11.449Z,3.50
2023-09-27T00:12:40.494Z,3.73
2023-09-27T00:15:10.375Z,4.90
2023-09-27T00:17:37.629Z,3.70
2023-09-27T00:20:14.705Z,4.17
2023-09-27T00:22:41.904Z,3.73
2023-09-27T00:25:10.107Z,3.70
2023-09-27T00:27:38.604Z,3.30
2023-09-27T00:30:10.399Z,2.90
2023-09-27T00:32:37.891Z,4.27
2023-09-27T00:35:08.051Z,3.17
2023-09-27T00:37:35.420Z,4.33
2023-09-27T00:40:02.663Z,3.33
2023-09-27T00:42:29.840Z,3.57
2023-09-27T00:44:58.247Z,3.20
2023-09-27T00:47:25.536Z,3.10
2023-09-27T00:49:54.823Z,3.67
2023-09-27T00:52:22.362Z,2.40
2023-09-27T00:54:50.818Z,3.83
2023-09-27T00:57:19.689Z,3.40
2023-09-27T00:59:47.658Z,3.77
2023-09-27T01:02:15.576Z,2.83
2023-09-27T01:04:42.784Z,3.30
2023-09-27T01:07:10.928Z,2.37
2023-09-27T01:09:39.168Z,3.10
2023-09-27T01:12:06.776Z,3.13
2023-09-27T01:14:33.984Z,2.73
2023-09-27T01:17:13.606Z,2.87
2023-09-27T01:19:41.331Z,3.03
2023-09-27T01:22:08.683Z,2.80
2023-09-27T01:24:39.059Z,2.50
2023-09-27T01:27:10.750Z,3.20
2023-09-27T01:29:38.981Z,2.83
2023-09-27T01:32:06.619Z,3.30
2023-09-27T01:34:33.829Z,2.60
2023-09-27T01:37:01.440Z,3.67
2023-09-27T01:39:31.625Z,3.43
2023-09-27T01:41:58.846Z,2.80
2023-09-27T01:44:25.943Z,3.73
2023-09-27T01:46:53.128Z,3.57
2023-09-27T01:49:20.319Z,2.90
2023-09-27T01:51:47.489Z,3.50
2023-09-27T01:54:14.599Z,3.50
2023-09-27T01:56:41.667Z,3.77
2023-09-27T01:59:08.909Z,4.03
2023-09-27T02:01:36.401Z,3.70
2023-09-27T02:04:04.141Z,2.53
2023-09-27T02:06:31.347Z,2.77
2023-09-27T02:08:58.520Z,4.17
2023-09-27T02:11:26.882Z,3.87
2023-09-27T02:13:54.593Z,3.40
2023-09-27T02:16:22.129Z,3.87
2023-09-27T02:18:50.585Z,3.00
2023-09-27T02:21:17.784Z,3.57
2023-09-27T02:23:44.859Z,2.73
2023-09-27T02:26:14.207Z,3.10
2023-09-27T02:28:44.369Z,2.53
2023-09-27T02:31:12.110Z,3.83
2023-09-27T02:33:39.874Z,2.20
2023-09-27T02:36:07.255Z,3.07
2023-09-27T02:38:37.658Z,2.23
2023-09-27T02:41:05.646Z,2.90
2023-09-27T02:43:33.335Z,3.00
2023-09-27T02:46:00.591Z,2.80
2023-09-27T02:48:27.960Z,2.53
2023-09-27T02:50:55.135Z,3.10
2023-09-27T02:53:22.970Z,2.60
2023-09-27T02:55:50.619Z,2.50
2023-09-27T02:58:17.781Z,2.67
2023-09-27T03:00:45.008Z,3.13
2023-09-27T03:03:14.942Z,2.20
2023-09-27T03:05:42.331Z,2.90
2023-09-27T03:08:09.546Z,2.80
2023-09-27T03:10:40.180Z,3.27
2023-09-27T03:13:09.294Z,1.77
2023-09-27T03:15:39.779Z,1.87
2023-09-27T03:18:07.649Z,1.73
2023-09-27T03:20:35.129Z,2.80
2023-09-27T03:23:02.697Z,2.73
2023-09-27T03:25:29.971Z,2.23
2023-09-27T03:27:57.143Z,2.00
2023-09-27T03:30:25.317Z,2.73
2023-09-27T03:32:52.803Z,3.57
2023-09-27T03:35:20.703Z,2.23
2023-09-27T03:37:48.586Z,2.10
2023-09-27T03:40:16.401Z,3.00
2023-09-27T03:42:47.714Z,2.77
2023-09-27T03:45:18.376Z,2.73
2023-09-27T03:47:48.916Z,2.03
2023-09-27T03:50:21.505Z,2.40
2023-09-27T03:52:49.302Z,1.97
2023-09-27T03:55:16.949Z,2.13
2023-09-27T03:57:44.242Z,2.00
2023-09-27T04:00:15.214Z,1.60
2023-09-27T04:02:45.540Z,2.00
2023-09-27T04:05:14.098Z,2.17
2023-09-27T04:07:41.785Z,3.37
2023-09-27T04:10:10.052Z,2.07
2023-09-27T04:12:37.667Z,1.93
2023-09-27T04:15:10.187Z,1.90
2023-09-27T04:17:39.362Z,2.30
2023-09-27T04:20:16.201Z,2.60
2023-09-27T04:22:49.736Z,3.60
2023-09-27T04:25:19.462Z,2.43
2023-09-27T04:27:51.808Z,2.33
2023-09-27T04:30:20.926Z,2.17
2023-09-27T04:32:52.197Z,1.67
2023-09-27T04:35:21.289Z,2.80
2023-09-27T04:37:49.800Z,2.30
2023-09-27T04:40:18.319Z,2.03
2023-09-27T04:42:47.388Z,2.10
2023-09-27T04:45:15.858Z,1.57
2023-09-27T04:47:46.847Z,1.90
2023-09-27T04:50:16.452Z,2.33
2023-09-27T04:52:44.536Z,1.57
2023-09-27T04:55:13.710Z,2.40
2023-09-27T04:57:41.889Z,2.23
2023-09-27T05:00:20.436Z,2.50
2023-09-27T05:02:48.455Z,1.50
2023-09-27T05:05:16.222Z,2.03
2023-09-27T05:07:44.283Z,2.97
2023-09-27T05:10:12.214Z,1.80
2023-09-27T05:12:40.555Z,1.90
2023-09-27T05:15:10.758Z,2.33
2023-09-27T05:17:38.772Z,2.00
2023-09-27T05:20:11.055Z,1.77
2023-09-27T05:22:44.721Z,2.70
2023-09-27T05:25:12.859Z,2.03
2023-09-27T05:27:40.263Z,2.20
2023-09-27T05:30:14.058Z,1.23
2023-09-27T05:32:44.399Z,1.50
2023-09-27T05:35:12.230Z,1.57
2023-09-27T05:37:39.526Z,1.50
2023-09-27T05:40:10.371Z,1.50
2023-09-27T05:42:39.036Z,1.97
2023-09-27T05:45:07.613Z,2.40
2023-09-27T05:47:35.291Z,1.17
2023-09-27T05:50:03.044Z,1.70
2023-09-27T05:52:30.214Z,1.73
2023-09-27T05:54:57.938Z,2.43
2023-09-27T05:57:25.562Z,1.73
2023-09-27T05:59:53.435Z,2.07
2023-09-27T06:02:21.699Z,1.97
2023-09-27T06:04:49.147Z,1.40
2023-09-27T06:07:18.418Z,1.90
2023-09-27T06:09:45.945Z,1.83
2023-09-27T06:12:13.580Z,2.00
2023-09-27T06:14:43.103Z,1.70
2023-09-27T06:17:11.405Z,2.37
2023-09-27T06:19:38.883Z,2.10
2023-09-27T06:22:06.144Z,2.23
2023-09-27T06:24:33.701Z,2.27
2023-09-27T06:27:01.230Z,1.97
2023-09-27T06:29:28.399Z,1.50
2023-09-27T06:31:56.389Z,1.63
2023-09-27T06:34:23.844Z,1.73
2023-09-27T06:36:52.428Z,1.33
2023-09-27T06:39:24.803Z,1.73
2023-09-27T06:41:53.562Z,1.43
2023-09-27T06:44:21.198Z,1.70
2023-09-27T06:46:50.725Z,0.83
2023-09-27T06:49:18.219Z,1.93
2023-09-27T06:51:45.960Z,2.20
2023-09-27T06:54:13.356Z,1.47
2023-09-27T06:56:42.083Z,2.30
2023-09-27T06:59:09.873Z,2.30
2023-09-27T07:01:37.525Z,1.93
2023-09-27T07:04:05.201Z,2.40
2023-09-27T07:06:32.539Z,2.03
2023-09-27T07:09:00.093Z,1.60
2023-09-27T07:11:27.297Z,2.33
2023-09-27T07:13:55.501Z,2.27
2023-09-27T07:16:29.896Z,2.30
2023-09-27T07:19:01.157Z,3.23
2023-09-27T07:21:29.383Z,3.30
2023-09-27T07:23:57.006Z,3.53
2023-09-27T07:26:24.382Z,4.27
2023-09-27T07:28:52.444Z,2.53
2023-09-27T07:31:21.283Z,2.50
2023-09-27T07:33:51.283Z,2.70
2023-09-27T07:36:21.570Z,3.27
2023-09-27T07:38:48.933Z,3.37
2023-09-27T07:41:19.165Z,2.90
2023-09-27T07:43:46.400Z,4.00
2023-09-27T07:46:13.778Z,2.73
2023-09-27T07:48:42.993Z,2.87
2023-09-27T07:51:15.056Z,2.53
2023-09-27T07:53:42.918Z,3.30
2023-09-27T07:56:21.234Z,3.83
2023-09-27T07:58:54.296Z,3.20
2023-09-27T08:01:23.307Z,3.07
2023-09-27T08:03:54.075Z,4.30
2023-09-27T08:06:21.887Z,3.70
2023-09-27T08:08:53.086Z,4.23
2023-09-27T08:11:20.623Z,4.40
2023-09-27T08:13:47.739Z,3.50
2023-09-27T08:16:15.367Z,3.17
2023-09-27T08:18:44.191Z,2.90
2023-09-27T08:21:12.350Z,2.20
2023-09-27T08:23:41.407Z,3.40
2023-09-27T08:26:13.850Z,2.77
2023-09-27T08:28:41.899Z,3.30
2023-09-27T08:31:10.859Z,3.27
2023-09-27T08:33:38.446Z,2.90
2023-09-27T08:36:06.524Z,3.77
2023-09-27T08:38:35.104Z,4.00
2023-09-27T08:41:02.399Z,2.30
2023-09-27T08:43:32.775Z,3.80
2023-09-27T08:46:00.607Z,3.20
2023-09-27T08:48:31.747Z,2.43
2023-09-27T08:51:06.112Z,3.10
2023-09-27T08:53:35.617Z,2.00
2023-09-27T08:56:05.423Z,2.33
2023-09-27T08:58:35.498Z,3.10
2023-09-27T09:01:04.641Z,2.80
2023-09-27T09:03:33.995Z,3.00
2023-09-27T09:06:02.489Z,3.23
2023-09-27T09:08:43.227Z,2.93
2023-09-27T09:11:13.403Z,3.97
2023-09-27T09:14:08.094Z,3.93
2023-09-27T09:16:48.807Z,2.93
2023-09-27T09:19:41.793Z,3.23
2023-09-27T09:22:14.256Z,2.63
2023-09-27T09:24:43.745Z,2.73
2023-09-27T09:27:16.303Z,3.33
2023-09-27T09:29:51.838Z,2.73
2023-09-27T09:32:29.433Z,3.07
2023-09-27T09:34:57.295Z,4.07
2023-09-27T09:37:32.181Z,3.37
2023-09-27T09:40:15.880Z,3.30
2023-09-27T09:42:44.692Z,3.23
2023-09-27T09:45:13.600Z,2.97
2023-09-27T09:47:47.638Z,3.47
2023-09-27T09:50:20.525Z,3.73
2023-09-27T09:52:58.883Z,4.10
2023-09-27T09:55:52.550Z,3.90
2023-09-27T09:58:37.267Z,4.07
2023-09-27T10:01:05.909Z,4.10
2023-09-27T10:03:35.417Z,3.80
2023-09-27T10:06:03.499Z,3.93
2023-09-27T10:08:40.303Z,4.37
2023-09-27T10:11:08.031Z,3.23
2023-09-27T10:13:42.482Z,3.30
2023-09-27T10:16:13.582Z,2.97
2023-09-27T10:18:41.646Z,2.93
2023-09-27T10:21:14.509Z,3.27
2023-09-27T10:23:47.862Z,3.23
2023-09-27T10:26:32.612Z,2.93
2023-09-27T10:29:05.940Z,3.73
2023-09-27T10:31:37.402Z,2.50
2023-09-27T10:34:23.508Z,3.63
2023-09-27T10:36:59.567Z,3.17
2023-09-27T10:39:32.909Z,3.23
2023-09-27T10:42:00.300Z,3.53
2023-09-27T10:44:29.562Z,3.17
2023-09-27T10:47:02.491Z,3.70
2023-09-27T10:49:39.435Z,3.90
2023-09-27T10:52:19.831Z,3.83
2023-09-27T10:54:47.936Z,3.53
2023-09-27T10:57:15.704Z,3.60
2023-09-27T10:59:48.758Z,3.00
2023-09-27T11:02:31.628Z,3.07
2023-09-27T11:04:58.858Z,3.50
2023-09-27T11:07:47.968Z,3.43
2023-09-27T11:10:36.024Z,2.70
2023-09-27T11:13:11.138Z,4.40
2023-09-27T11:15:43.081Z,2.67
2023-09-27T11:18:11.966Z,3.80
2023-09-27T11:20:43.629Z,3.27
2023-09-27T11:23:11.169Z,3.23
2023-09-27T11:25:44.729Z,2.90
2023-09-27T11:28:17.953Z,3.87
2023-09-27T11:30:45.596Z,3.30
2023-09-27T11:33:17.409Z,3.00
2023-09-27T11:35:49.761Z,2.97
2023-09-27T11:38:17.069Z,2.83
2023-09-27T11:40:45.100Z,3.03
2023-09-27T11:43:13.742Z,3.20
2023-09-27T11:45:49.247Z,2.60
2023-09-27T11:48:33.158Z,3.57
2023-09-27T11:51:01.655Z,2.80
2023-09-27T11:53:29.367Z,3.80
2023-09-27T11:55:57.160Z,3.33
2023-09-27T11:58:24.555Z,3.00
2023-09-27T12:00:52.884Z,3.90
2023-09-27T12:03:20.467Z,2.77
2023-09-27T12:05:49.602Z,2.93
2023-09-27T12:08:17.213Z,2.80
2023-09-27T12:10:44.603Z,3.10
2023-09-27T12:13:11.759Z,3.10
2023-09-27T12:15:38.930Z,3.27
2023-09-27T12:18:06.300Z,2.67
2023-09-27T12:23:04.247Z,2.50
2023-09-27T12:25:33.289Z,2.47
2023-09-27T12:28:00.475Z,2.20
2023-09-27T12:30:28.943Z,2.50
2023-09-27T12:32:56.995Z,1.97
2023-09-27T12:35:24.624Z,2.53
2023-09-27T12:37:51.857Z,2.20
2023-09-27T12:40:19.015Z,2.97
2023-09-27T12:42:46.106Z,2.70
2023-09-27T12:45:14.733Z,2.30
2023-09-27T12:47:42.888Z,3.27
2023-09-27T12:50:10.495Z,2.33
2023-09-27T12:52:38.221Z,2.90
2023-09-27T12:55:06.610Z,2.50
2023-09-27T12:57:33.940Z,2.90
2023-09-27T13:00:01.860Z,2.47
2023-09-27T13:02:29.308Z,2.70
2023-09-27T13:04:56.487Z,2.57
2023-09-27T13:07:23.676Z,3.00
2023-09-27T13:09:51.474Z,3.07
2023-09-27T13:12:18.916Z,2.37
2023-09-27T13:14:46.425Z,2.80
2023-09-27T13:17:13.779Z,3.27
2023-09-27T13:19:41.265Z,2.37
2023-09-27T13:22:08.548Z,2.53
2023-09-27T13:24:35.781Z,1.93
2023-09-27T13:27:03.029Z,2.40
2023-09-27T13:29:30.308Z,2.57
2023-09-27T13:31:58.441Z,2.50
2023-09-27T13:34:25.577Z,3.10
2023-09-27T13:36:52.750Z,2.97
2023-09-27T13:39:23.172Z,2.90
2023-09-27T13:41:50.341Z,2.40
2023-09-27T13:44:17.626Z,2.50
2023-09-27T13:46:45.582Z,2.27
2023-09-27T13:49:13.313Z,2.47
2023-09-27T13:51:41.351Z,2.30
2023-09-27T13:54:09.815Z,2.23
2023-09-27T13:56:39.910Z,2.80
2023-09-27T13:59:07.363Z,2.40
2023-09-27T14:01:35.471Z,2.00
2023-09-27T14:04:02.817Z,2.40
2023-09-27T14:06:31.944Z,2.27
2023-09-27T14:08:59.343Z,2.30
2023-09-27T14:11:26.892Z,3.10
2023-09-27T14:13:54.241Z,2.40
2023-09-27T14:16:22.187Z,2.00
2023-09-27T14:18:49.847Z,2.27
2023-09-27T14:21:17.408Z,3.10
2023-09-27T14:23:45.537Z,2.80
2023-09-27T14:26:13.020Z,2.33
2023-09-27T14:28:40.594Z,2.67
2023-09-27T14:31:08.056Z,2.97
2023-09-27T14:33:36.460Z,2.03
2023-09-27T14:36:07.394Z,2.10
2023-09-27T14:38:35.696Z,2.93
2023-09-27T14:41:10.708Z,2.30
2023-09-27T14:43:41.354Z,2.20
2023-09-27T14:46:13.114Z,3.23
2023-09-27T14:48:41.438Z,2.63
2023-09-27T14:51:13.257Z,2.60
2023-09-27T14:53:45.598Z,2.93
2023-09-27T14:56:14.971Z,2.67
2023-09-27T14:58:42.145Z,2.50
2023-09-27T15:01:09.473Z,2.70
2023-09-27T15:03:37.509Z,2.90
2023-09-27T15:06:06.788Z,2.30
2023-09-27T15:08:34.612Z,2.80
2023-09-27T15:11:04.396Z,2.30
2023-09-27T15:13:32.558Z,2.10
2023-09-27T15:16:01.580Z,2.97
2023-09-27T15:18:28.955Z,2.70
2023-09-27T15:20:56.173Z,2.67
2023-09-27T15:23:23.317Z,2.77
2023-09-27T15:25:50.478Z,2.50
2023-09-27T15:28:17.839Z,2.67
2023-09-27T15:30:45.072Z,2.30
2023-09-27T15:33:12.403Z,2.70
2023-09-27T15:35:40.096Z,2.60
2023-09-27T15:38:08.155Z,2.83
2023-09-27T15:40:35.429Z,2.50
2023-09-27T15:43:02.814Z,2.50
2023-09-27T15:45:31.145Z,2.27
2023-09-27T15:47:58.709Z,2.10
2023-09-27T15:50:26.001Z,2.77
2023-09-27T15:52:53.380Z,2.60
2023-09-27T15:55:20.817Z,2.27
2023-09-27T15:57:48.252Z,2.57
2023-09-27T16:00:17.425Z,2.97
2023-09-27T16:02:45.886Z,2.70
2023-09-27T16:05:14.029Z,2.20
2023-09-27T16:07:42.145Z,2.40
2023-09-27T16:10:10.438Z,2.40
2023-09-27T16:12:38.469Z,2.70
2023-09-27T16:15:09.610Z,2.30
2023-09-27T16:17:38.503Z,2.57
2023-09-27T16:20:08.396Z,2.13
2023-09-27T16:22:35.959Z,3.40
2023-09-27T16:25:06.674Z,2.30
2023-09-27T16:27:34.220Z,3.13
2023-09-27T16:30:01.640Z,2.87
2023-09-27T16:32:30.042Z,3.40
2023-09-27T16:34:57.315Z,2.43
2023-09-27T16:37:24.554Z,2.50
2023-09-27T16:39:53.402Z,3.00
2023-09-27T16:42:20.501Z,3.33
2023-09-27T16:44:47.622Z,4.27
2023-09-27T16:47:14.810Z,4.07
2023-09-27T16:49:41.928Z,3.70
2023-09-27T16:52:09.070Z,3.80
2023-09-27T16:54:36.227Z,3.50
2023-09-27T16:57:03.794Z,3.40
2023-09-27T16:59:30.983Z,3.00
2023-09-27T17:01:58.456Z,2.63
2023-09-27T17:04:25.919Z,3.00
2023-09-27T17:06:53.068Z,2.90
2023-09-27T17:09:20.392Z,2.80
2023-09-27T17:11:47.749Z,2.50
2023-09-27T17:14:15.070Z,2.93
2023-09-27T17:16:42.324Z,3.30
2023-09-27T17:19:09.540Z,2.90
2023-09-27T17:21:36.781Z,3.10
2023-09-27T17:24:04.194Z,2.70
2023-09-27T17:26:31.328Z,2.47
2023-09-27T17:28:58.561Z,2.00
2023-09-27T17:31:25.829Z,3.10
2023-09-27T17:33:53.507Z,2.63
2023-09-27T17:36:21.640Z,3.20
2023-09-27T17:38:48.716Z,2.73
2023-09-27T17:41:17.296Z,2.80
2023-09-27T17:43:44.492Z,4.27
2023-09-27T17:46:26.359Z,3.30
2023-09-27T17:48:54.512Z,3.07
2023-09-27T17:51:21.821Z,2.80
2023-09-27T17:53:49.063Z,4.13
2023-09-27T17:56:16.809Z,2.80
2023-09-27T17:58:44.232Z,3.00
2023-09-27T18:01:11.556Z,3.90
2023-09-27T18:03:42.683Z,3.00
2023-09-27T18:06:11.227Z,3.47
2023-09-27T18:08:40.822Z,2.50
2023-09-27T18:11:10.427Z,3.40
2023-09-27T18:13:38.400Z,3.57
2023-09-27T18:16:20.476Z,2.60
2023-09-27T18:18:50.837Z,3.30
2023-09-27T18:21:21.190Z,2.73
2023-09-27T18:23:51.319Z,2.83
2023-09-27T18:26:18.689Z,3.80
2023-09-27T18:28:46.778Z,2.77
2023-09-27T18:31:14.026Z,3.20
2023-09-27T18:33:41.483Z,2.83
2023-09-27T18:36:08.674Z,3.13
2023-09-27T18:38:36.410Z,3.47
2023-09-27T18:41:04.950Z,3.30
2023-09-27T18:43:32.339Z,2.47
2023-09-27T18:46:00.313Z,3.70
2023-09-27T18:48:27.880Z,2.60
2023-09-27T18:50:55.458Z,3.47
2023-09-27T18:53:22.662Z,3.10
2023-09-27T18:55:49.938Z,3.00
2023-09-27T18:58:17.106Z,3.90
2023-09-27T19:00:45.092Z,3.40
2023-09-27T19:03:13.898Z,3.67
2023-09-27T19:05:41.618Z,3.03
2023-09-27T19:08:09.224Z,2.53
2023-09-27T19:10:40.209Z,3.70
2023-09-27T19:13:07.504Z,3.10
2023-09-27T19:15:34.792Z,3.53
2023-09-27T19:18:02.272Z,3.10
2023-09-27T19:20:32.777Z,2.73
2023-09-27T19:23:00.912Z,4.30
2023-09-27T19:25:28.270Z,2.67
2023-09-27T19:27:57.413Z,4.50
2023-09-27T19:30:25.038Z,3.20
2023-09-27T19:32:52.263Z,3.13
2023-09-27T19:35:19.924Z,2.90
2023-09-27T19:37:47.153Z,2.60
2023-09-27T19:40:14.303Z,4.20
2023-09-27T19:42:44.008Z,3.30
2023-09-27T19:45:11.704Z,3.20
2023-09-27T19:47:39.009Z,3.80
2023-09-27T19:50:10.354Z,3.20
2023-09-27T19:52:40.800Z,3.67
2023-09-27T19:55:11.662Z,3.50
2023-09-27T19:57:38.871Z,3.10
2023-09-27T20:00:11.893Z,5.00
2023-09-27T20:02:46.415Z,2.43
2023-09-27T20:05:13.847Z,2.87
2023-09-27T20:07:46.753Z,3.90
2023-09-27T20:10:15.873Z,4.43
2023-09-27T20:12:43.167Z,3.90
2023-09-27T20:15:13.065Z,3.77
2023-09-27T20:17:40.974Z,3.63
2023-09-27T20:20:09.670Z,4.87
2023-09-27T20:22:37.074Z,3.77
2023-09-27T20:25:05.755Z,3.50
2023-09-27T20:27:33.081Z,4.00
2023-09-27T20:30:00.363Z,3.23
2023-09-27T20:32:28.153Z,3.27
2023-09-27T20:34:55.311Z,3.60
2023-09-27T20:37:22.652Z,3.37
2023-09-27T20:39:49.860Z,3.47
2023-09-27T20:42:18.886Z,2.87
2023-09-27T20:44:46.070Z,4.10
2023-09-27T20:47:15.595Z,3.97
2023-09-27T20:49:42.864Z,3.07
2023-09-27T20:52:10.505Z,3.43
2023-09-27T20:54:37.624Z,4.20
2023-09-27T20:57:04.866Z,4.47
2023-09-27T20:59:32.121Z,4.30
2023-09-27T21:01:59.554Z,3.23
2023-09-27T21:04:26.748Z,4.33
2023-09-27T21:06:53.878Z,4.33
2023-09-27T21:09:20.942Z,3.60
2023-09-27T21:11:48.097Z,3.30
2023-09-27T21:14:15.334Z,3.70
2023-09-27T21:16:42.541Z,4.47
2023-09-27T21:19:09.704Z,3.23
2023-09-27T21:21:36.938Z,4.60
2023-09-27T21:24:05.455Z,4.17
2023-09-27T21:26:32.594Z,3.27
2023-09-27T21:28:59.941Z,3.57
2023-09-27T21:31:27.188Z,4.57
2023-09-27T21:33:54.504Z,4.17
2023-09-27T21:36:21.889Z,3.60
2023-09-27T21:38:49.040Z,3.40
2023-09-27T21:41:18.527Z,3.50
2023-09-27T21:43:45.884Z,3.33
2023-09-27T21:46:18.806Z,3.57
2023-09-27T21:48:49.701Z,4.00
2023-09-27T21:51:18.153Z,2.90
2023-09-27T21:53:45.876Z,3.37
2023-09-27T21:56:14.621Z,4.40
2023-09-27T21:58:43.241Z,4.60
2023-09-27T22:01:13.138Z,4.13
2023-09-27T22:03:41.486Z,3.80
2023-09-27T22:06:14.387Z,4.83
2023-09-27T22:08:50.006Z,4.00
2023-09-27T22:11:18.045Z,3.00
2023-09-27T22:13:46.062Z,4.70
2023-09-27T22:16:13.538Z,3.90
2023-09-27T22:18:51.650Z,4.83
2023-09-27T22:21:42.241Z,4.03
2023-09-27T22:24:13.127Z,3.40
2023-09-27T22:26:52.287Z,3.80
2023-09-27T22:29:19.992Z,4.60
2023-09-27T22:31:48.645Z,4.00
2023-09-27T22:34:24.918Z,4.83
2023-09-27T22:36:54.332Z,5.23
2023-09-27T22:39:23.030Z,4.20
2023-09-27T22:41:53.337Z,4.40
2023-09-27T22:44:22.322Z,3.33
2023-09-27T22:46:53.710Z,3.87
2023-09-27T22:49:23.599Z,4.33
2023-09-27T22:51:52.013Z,4.40
2023-09-27T22:54:21.986Z,3.57
2023-09-27T22:56:51.828Z,3.50
2023-09-27T22:59:19.223Z,3.63
2023-09-27T23:01:50.524Z,3.70
2023-09-27T23:04:17.743Z,3.33
2023-09-27T23:06:46.524Z,5.03
2023-09-27T23:09:25.430Z,4.70
2023-09-27T23:12:17.013Z,3.33
2023-09-27T23:15:02.981Z,3.97
2023-09-27T23:17:33.394Z,3.40
2023-09-27T23:20:01.818Z,3.40
2023-09-27T23:22:49.189Z,3.87
2023-09-27T23:25:36.100Z,3.80
2023-09-27T23:28:04.482Z,3.70
2023-09-27T23:30:31.807Z,4.10
2023-09-27T23:33:01.532Z,3.70
2023-09-27T23:35:31.325Z,4.47
2023-09-27T23:38:10.940Z,4.40
2023-09-27T23:40:42.818Z,5.00
2023-09-27T23:43:16.475Z,3.80
2023-09-27T23:45:46.738Z,4.83
2023-09-27T23:48:14.202Z,4.20
2023-09-27T23:50:42.139Z,5.77
2023-09-27T23:53:11.209Z,4.37
2023-09-27T23:55:42.347Z,6.57
2023-09-27T23:58:13.878Z,5.23
